Terminal Aerodrome Forecast
Issued by NWS Lake Charles, LA

Home | Current Version | Previous Version | Text Only | Print | Product List | Glossary On
Versions: 1 2 3 4 5 6 7 8 9 10 11 12 13 14 15 16 17 18 19 20 21 22 23 24 25 26 27 28 29
532
FTUS44 KLCH 221501 AAC
TAFBPT
TAF AMD
KBPT 221501Z 2215/2312 05008KT P6SM BKN010
     FM221800 09009KT P6SM VCSH SCT020 BKN035 BKN050
      TEMPO 2218/2222 BKN020
     FM230500 09004KT P6SM VCTS SCT035CB BKN050=

USA.gov is the U.S. government's official web portal to all federal, state and local government web resources and services.